Time;durP1;ratioP1;P1;durP2;ratioP2;P2;SDS_P1;SDS_P2;PMS_P1;PMS_P2;Temp;Humidity;BMP_temperature;BMP_pressure;BME280_temperature;BME280_humidity;BME280_pressure;Samples;Min_cycle;Max_cycle;Signal;HPM_P1;HPM_P2
2021/09/13 00:00:25;;;;;;;0.60;0.60;;;11.70;99.90;;;;;;5133334;27;20205;-73
2021/09/13 00:02:51;;;;;;;0.60;0.60;;;11.60;99.90;;;;;;5133178;27;20211;-74
2021/09/13 00:05:17;;;;;;;0.60;0.60;;;11.60;99.90;;;;;;5134469;27;20214;-75
2021/09/13 00:07:42;;;;;;;0.60;0.60;;;11.50;99.90;;;;;;5132673;27;20213;-73
2021/09/13 00:10:09;;;;;;;0.60;0.60;;;11.50;99.90;;;;;;5131777;27;20661;-73
2021/09/13 00:12:34;;;;;;;0.50;0.50;;;11.50;99.90;;;;;;5131335;27;20205;-73
2021/09/13 00:15:00;;;;;;;0.50;0.50;;;11.40;99.90;;;;;;5132704;27;20546;-73
2021/09/13 00:17:26;;;;;;;0.60;0.60;;;11.30;99.90;;;;;;5132755;27;20199;-73
2021/09/13 00:19:52;;;;;;;0.60;0.60;;;11.30;99.90;;;;;;5132667;27;20568;-73
2021/09/13 00:22:17;;;;;;;0.60;0.60;;;11.20;99.90;;;;;;5131339;27;20241;-74
2021/09/13 00:24:43;;;;;;;0.60;0.60;;;11.10;99.90;;;;;;5132635;27;20199;-73
2021/09/13 00:27:09;;;;;;;0.50;0.50;;;11.00;99.90;;;;;;5132571;27;20681;-73
2021/09/13 00:29:34;;;;;;;0.60;0.60;;;10.90;99.90;;;;;;5132125;27;20202;-73
2021/09/13 00:32:00;;;;;;;0.60;0.60;;;10.80;99.90;;;;;;5131193;27;20276;-74
2021/09/13 00:34:26;;;;;;;0.60;0.60;;;10.70;99.90;;;;;;5132038;27;20202;-73
2021/09/13 00:36:52;;;;;;;0.50;0.50;;;10.50;99.90;;;;;;5132427;27;20197;-72
2021/09/13 00:39:18;;;;;;;0.60;0.60;;;10.50;99.90;;;;;;5133922;27;20273;-73
2021/09/13 00:41:43;;;;;;;0.50;0.50;;;10.40;99.90;;;;;;5132192;27;20209;-73
2021/09/13 00:44:09;;;;;;;0.57;0.57;;;10.40;99.90;;;;;;5131311;27;20277;-73
2021/09/13 00:46:35;;;;;;;0.70;0.70;;;10.20;99.90;;;;;;5132748;27;20191;-73
2021/09/13 00:49:00;;;;;;;0.60;0.60;;;10.20;99.90;;;;;;5126184;27;20221;-73
2021/09/13 00:51:26;;;;;;;0.60;0.60;;;10.10;99.90;;;;;;5131877;27;20209;-73
2021/09/13 00:53:52;;;;;;;0.70;0.70;;;10.00;99.90;;;;;;5132247;27;20210;-73
2021/09/13 00:56:17;;;;;;;0.60;0.60;;;10.00;99.90;;;;;;5131881;27;20195;-73
2021/09/13 00:58:44;;;;;;;0.60;0.60;;;10.00;99.90;;;;;;5131951;27;20203;-73
2021/09/13 01:01:10;;;;;;;0.60;0.60;;;9.90;99.90;;;;;;5133151;27;20652;-73
2021/09/13 01:03:36;;;;;;;0.60;0.60;;;9.90;99.90;;;;;;5135614;22;20219;-72
2021/09/13 01:06:02;;;;;;;0.60;0.60;;;9.90;99.90;;;;;;5074577;28;20607;-72
2021/09/13 01:08:28;;;;;;;0.60;0.60;;;9.80;99.90;;;;;;5083197;28;20192;-72
2021/09/13 01:10:55;;;;;;;0.70;0.70;;;9.80;99.90;;;;;;5083809;28;20219;-72
2021/09/13 01:13:22;;;;;;;0.60;0.60;;;9.70;99.90;;;;;;5080880;28;20192;-72
2021/09/13 01:15:47;;;;;;;0.60;0.60;;;9.70;99.90;;;;;;5083113;28;20215;-73
2021/09/13 01:18:13;;;;;;;0.50;0.50;;;9.60;99.90;;;;;;5073377;28;20283;-72
2021/09/13 01:20:39;;;;;;;0.57;0.57;;;9.60;99.90;;;;;;5079098;28;20214;-73
2021/09/13 01:23:07;;;;;;;0.60;0.60;;;9.60;99.90;;;;;;5091055;28;20614;-72
2021/09/13 01:25:35;;;;;;;0.60;0.60;;;9.50;99.90;;;;;;5090758;28;20585;-73
2021/09/13 01:28:01;;;;;;;0.60;0.60;;;9.50;99.90;;;;;;5088585;28;20228;-72
2021/09/13 01:30:28;;;;;;;0.50;0.50;;;9.50;99.90;;;;;;5089398;28;20694;-73
2021/09/13 01:32:53;;;;;;;0.60;0.60;;;9.40;99.90;;;;;;5092162;28;20192;-73
2021/09/13 01:35:19;;;;;;;0.60;0.60;;;9.30;99.90;;;;;;5091661;28;20249;-72
2021/09/13 01:37:45;;;;;;;0.70;0.70;;;9.30;99.90;;;;;;5072513;28;20205;-73
2021/09/13 01:40:11;;;;;;;0.50;0.50;;;9.20;99.90;;;;;;5090633;28;20222;-72
2021/09/13 01:42:36;;;;;;;0.60;0.60;;;9.20;99.90;;;;;;5089106;28;20207;-72
2021/09/13 01:45:02;;;;;;;0.60;0.60;;;9.20;99.90;;;;;;5089467;28;20208;-72
2021/09/13 01:47:29;;;;;;;0.90;0.90;;;9.10;99.90;;;;;;5090331;28;20283;-72
2021/09/13 01:49:55;;;;;;;0.70;0.70;;;9.10;99.90;;;;;;5090157;28;20307;-72
2021/09/13 01:52:20;;;;;;;0.55;0.55;;;9.00;99.90;;;;;;5091587;28;20275;-72
2021/09/13 01:54:46;;;;;;;0.50;0.50;;;9.00;99.90;;;;;;5081545;28;20216;-72
2021/09/13 01:57:12;;;;;;;0.50;0.50;;;9.00;99.90;;;;;;5084897;28;20188;-72
2021/09/13 01:59:37;;;;;;;0.60;0.60;;;8.90;99.90;;;;;;5080711;28;20211;-72
2021/09/13 02:02:03;;;;;;;0.50;0.50;;;8.90;99.90;;;;;;5082125;28;20196;-72
2021/09/13 02:04:29;;;;;;;0.50;0.50;;;8.80;99.90;;;;;;5090227;28;20216;-72
2021/09/13 02:06:55;;;;;;;0.60;0.60;;;8.80;99.90;;;;;;5089385;28;20659;-73
2021/09/13 02:09:21;;;;;;;0.68;0.68;;;8.70;99.90;;;;;;5086621;28;20199;-73
2021/09/13 02:11:46;;;;;;;0.50;0.50;;;8.70;99.90;;;;;;5076491;28;20200;-72
2021/09/13 02:14:12;;;;;;;1.17;1.05;;;8.60;99.90;;;;;;5089274;28;20589;-72
2021/09/13 02:16:38;;;;;;;3.50;1.02;;;8.60;99.90;;;;;;5086568;28;20574;-72
2021/09/13 02:19:03;;;;;;;0.60;0.60;;;8.50;99.90;;;;;;5090374;28;20807;-73
2021/09/13 02:21:29;;;;;;;0.45;0.45;;;8.40;99.90;;;;;;5089272;28;20554;-73
2021/09/13 02:23:55;;;;;;;0.52;0.52;;;8.40;99.90;;;;;;5089260;28;20265;-72
2021/09/13 02:26:20;;;;;;;0.50;0.50;;;8.40;99.90;;;;;;5091824;28;20556;-73
2021/09/13 02:28:46;;;;;;;1.17;1.08;;;8.50;99.90;;;;;;5090294;28;20213;-73
2021/09/13 02:31:12;;;;;;;2.25;1.42;;;8.40;99.90;;;;;;5090105;28;20547;-72
2021/09/13 02:33:37;;;;;;;0.60;0.60;;;8.40;99.90;;;;;;5079919;28;20570;-72
2021/09/13 02:36:03;;;;;;;0.70;0.70;;;8.40;99.90;;;;;;5078606;28;20209;-72
2021/09/13 02:38:29;;;;;;;0.70;0.70;;;8.50;99.90;;;;;;5088528;28;20279;-72
2021/09/13 02:40:55;;;;;;;0.70;0.70;;;8.40;99.90;;;;;;5094008;28;20219;-73
2021/09/13 02:43:20;;;;;;;0.60;0.60;;;8.40;99.90;;;;;;5094964;28;20208;-73
2021/09/13 02:45:46;;;;;;;0.52;0.52;;;8.40;99.90;;;;;;5092337;28;20682;-71
2021/09/13 02:48:12;;;;;;;0.63;0.63;;;8.40;99.90;;;;;;5093246;28;20204;-71
2021/09/13 02:50:37;;;;;;;0.50;0.50;;;8.40;99.90;;;;;;5093610;28;20222;-72
2021/09/13 02:53:03;;;;;;;0.63;0.63;;;8.40;99.90;;;;;;5092488;28;20200;-73
2021/09/13 02:55:29;;;;;;;1.02;1.02;;;8.40;99.90;;;;;;5094663;28;20196;-74
2021/09/13 02:57:55;;;;;;;0.50;0.50;;;8.40;99.90;;;;;;5094744;28;20224;-73
2021/09/13 03:00:20;;;;;;;0.60;0.60;;;8.40;99.90;;;;;;5091536;28;20223;-71
2021/09/13 03:02:46;;;;;;;0.75;0.75;;;8.30;99.90;;;;;;5090295;28;20216;-73
2021/09/13 03:05:12;;;;;;;0.50;0.50;;;8.30;99.90;;;;;;5091832;28;20531;-73
2021/09/13 03:07:38;;;;;;;0.60;0.60;;;8.30;99.90;;;;;;5094107;28;20208;-72
2021/09/13 03:10:05;;;;;;;0.55;0.55;;;8.20;99.90;;;;;;5093866;28;20208;-72
2021/09/13 03:12:33;;;;;;;2.15;1.17;;;8.10;99.90;;;;;;5095527;28;20791;-73
2021/09/13 03:15:02;;;;;;;0.70;0.70;;;8.10;99.90;;;;;;5090269;28;20196;-71
2021/09/13 03:17:27;;;;;;;0.50;0.50;;;8.00;99.90;;;;;;5090480;28;20207;-73
2021/09/13 03:19:53;;;;;;;0.68;0.68;;;7.90;99.90;;;;;;5089633;28;20208;-71
2021/09/13 03:22:19;;;;;;;0.63;0.63;;;7.90;99.90;;;;;;5093088;28;20208;-73
2021/09/13 03:24:45;;;;;;;0.70;0.70;;;7.90;99.90;;;;;;5094253;28;20624;-72
2021/09/13 03:27:10;;;;;;;0.50;0.50;;;7.80;99.90;;;;;;5091998;28;20223;-72
2021/09/13 03:29:36;;;;;;;0.50;0.50;;;7.70;99.90;;;;;;5093044;28;20208;-70
2021/09/13 03:32:02;;;;;;;0.85;0.85;;;7.70;99.90;;;;;;5083380;28;20204;-73
2021/09/13 03:34:28;;;;;;;0.60;0.60;;;7.70;99.90;;;;;;5077389;28;20212;-74
2021/09/13 03:36:54;;;;;;;0.70;0.70;;;7.70;99.90;;;;;;5083297;28;20678;-71
2021/09/13 03:39:20;;;;;;;0.63;0.63;;;7.70;99.90;;;;;;5086399;28;20208;-72
2021/09/13 03:41:46;;;;;;;0.70;0.70;;;7.60;99.90;;;;;;5080130;28;20200;-73
2021/09/13 03:44:11;;;;;;;0.60;0.60;;;7.60;99.90;;;;;;5092377;28;20207;-74
2021/09/13 03:46:37;;;;;;;0.60;0.60;;;7.50;99.90;;;;;;5092370;28;20203;-74
2021/09/13 03:49:03;;;;;;;0.60;0.60;;;7.50;99.90;;;;;;5092135;28;20245;-74
2021/09/13 03:51:28;;;;;;;0.60;0.60;;;7.50;99.90;;;;;;5078269;28;20204;-73
2021/09/13 03:53:54;;;;;;;0.70;0.70;;;7.40;99.90;;;;;;5091312;28;20552;-74
2021/09/13 03:56:20;;;;;;;0.70;0.70;;;7.40;99.90;;;;;;5074556;28;20232;-74
2021/09/13 03:58:45;;;;;;;0.70;0.70;;;7.40;99.90;;;;;;5094329;28;20258;-74
2021/09/13 04:01:11;;;;;;;0.52;0.52;;;7.30;99.90;;;;;;5074127;28;20205;-73
2021/09/13 04:03:47;;;;;;;0.52;0.52;;;7.30;99.90;;;;;;5075789;28;20205;-73
2021/09/13 04:06:26;;;;;;;0.60;0.60;;;7.30;99.90;;;;;;5093479;28;20277;-73
2021/09/13 04:11:26;;;;;;;0.70;0.70;;;7.20;99.90;;;;;;5093534;28;20252;-73
2021/09/13 04:13:51;;;;;;;0.70;0.70;;;7.20;99.90;;;;;;5074734;28;20213;-73
2021/09/13 04:16:17;;;;;;;0.70;0.70;;;7.20;99.90;;;;;;5091501;28;20282;-74
2021/09/13 04:18:43;;;;;;;0.75;0.75;;;7.20;99.90;;;;;;5090626;28;20651;-73
2021/09/13 04:21:08;;;;;;;0.70;0.70;;;7.20;99.90;;;;;;5080224;28;20204;-73
2021/09/13 04:23:34;;;;;;;0.60;0.60;;;7.30;99.90;;;;;;5088794;28;20204;-73
2021/09/13 04:26:00;;;;;;;0.65;0.65;;;7.30;99.90;;;;;;5092099;28;20574;-73
2021/09/13 04:28:25;;;;;;;0.60;0.60;;;7.40;99.90;;;;;;5090602;28;20666;-74
2021/09/13 04:30:51;;;;;;;0.60;0.60;;;7.30;99.90;;;;;;5092818;28;20212;-73
2021/09/13 04:33:17;;;;;;;0.40;0.40;;;7.40;99.90;;;;;;5089480;28;20204;-74
2021/09/13 04:35:42;;;;;;;0.50;0.50;;;7.30;99.90;;;;;;5082624;28;20235;-73
2021/09/13 04:38:08;;;;;;;0.50;0.50;;;7.30;99.90;;;;;;5075102;28;20569;-73
2021/09/13 04:40:34;;;;;;;0.60;0.60;;;7.20;99.90;;;;;;5078375;28;20212;-73
2021/09/13 04:43:00;;;;;;;0.50;0.50;;;7.20;99.90;;;;;;5092288;28;20211;-74
2021/09/13 04:45:25;;;;;;;0.60;0.60;;;7.20;99.90;;;;;;5092183;28;20286;-74
2021/09/13 04:47:51;;;;;;;0.70;0.70;;;7.10;99.90;;;;;;5091625;28;20188;-73
2021/09/13 04:50:17;;;;;;;0.70;0.70;;;7.10;99.90;;;;;;5090225;28;20674;-74
2021/09/13 04:52:42;;;;;;;0.60;0.60;;;7.10;99.90;;;;;;5091558;28;20270;-74
2021/09/13 04:55:08;;;;;;;0.60;0.60;;;7.00;99.90;;;;;;5074795;28;20571;-74
2021/09/13 04:57:34;;;;;;;0.50;0.50;;;7.00;99.90;;;;;;5073816;28;20647;-74
2021/09/13 05:00:00;;;;;;;0.60;0.60;;;7.00;99.90;;;;;;5090074;28;20204;-74
2021/09/13 05:02:25;;;;;;;0.60;0.60;;;7.10;99.90;;;;;;5076941;28;20216;-74
2021/09/13 05:04:51;;;;;;;0.60;0.60;;;7.20;99.90;;;;;;5088636;28;20254;-74
2021/09/13 05:07:20;;;;;;;0.60;0.60;;;7.30;99.90;;;;;;5091227;28;20208;-74
2021/09/13 05:09:45;;;;;;;0.60;0.60;;;7.40;99.90;;;;;;5091107;28;20196;-74
2021/09/13 05:12:11;;;;;;;0.60;0.60;;;7.60;99.90;;;;;;5081537;28;20228;-74
2021/09/13 05:14:37;;;;;;;0.80;0.80;;;7.70;99.90;;;;;;5083052;28;20220;-74
2021/09/13 05:17:02;;;;;;;0.70;0.70;;;7.80;99.90;;;;;;5090833;28;20232;-74
2021/09/13 05:19:28;;;;;;;0.50;0.50;;;7.90;99.90;;;;;;5082173;28;20200;-74
2021/09/13 05:21:54;;;;;;;0.70;0.70;;;7.90;99.90;;;;;;5080899;28;20248;-74
2021/09/13 05:24:19;;;;;;;0.60;0.60;;;7.90;99.90;;;;;;5089850;28;20204;-74
2021/09/13 05:26:45;;;;;;;0.60;0.60;;;7.90;99.90;;;;;;5089776;28;20550;-74
2021/09/13 05:29:11;;;;;;;0.70;0.70;;;7.90;99.90;;;;;;5088058;28;20342;-73
2021/09/13 05:31:36;;;;;;;0.70;0.70;;;7.90;99.90;;;;;;5076247;28;20219;-74
2021/09/13 05:34:02;;;;;;;0.50;0.50;;;7.90;99.90;;;;;;5089812;28;20216;-74
2021/09/13 05:36:28;;;;;;;0.70;0.70;;;7.90;99.90;;;;;;5089876;28;20669;-74
2021/09/13 05:38:54;;;;;;;0.60;0.60;;;7.90;99.90;;;;;;5072590;28;20667;-73
2021/09/13 05:41:19;;;;;;;0.60;0.60;;;7.90;99.90;;;;;;5091051;28;20267;-74
2021/09/13 05:43:45;;;;;;;0.70;0.70;;;8.00;99.90;;;;;;5092054;28;20204;-73
2021/09/13 05:46:10;;;;;;;0.52;0.52;;;8.20;99.90;;;;;;5089514;28;20235;-73
2021/09/13 05:48:36;;;;;;;0.50;0.50;;;8.40;99.90;;;;;;5075646;28;20204;-74
2021/09/13 05:51:02;;;;;;;0.60;0.60;;;8.60;99.90;;;;;;5090340;28;20223;-74
2021/09/13 05:53:27;;;;;;;0.60;0.60;;;8.70;99.90;;;;;;5089118;28;20282;-74
2021/09/13 05:55:53;;;;;;;0.70;0.70;;;8.80;99.90;;;;;;5089728;28;20218;-73
2021/09/13 05:58:19;;;;;;;0.47;0.47;;;8.90;99.90;;;;;;5091823;28;20603;-75
2021/09/13 06:00:44;;;;;;;0.52;0.52;;;9.00;99.90;;;;;;5090646;28;20210;-74
2021/09/13 06:03:10;;;;;;;0.65;0.65;;;9.10;99.90;;;;;;5090320;28;20221;-74
2021/09/13 06:05:36;;;;;;;0.68;0.68;;;9.20;99.90;;;;;;5090147;28;20306;-74
2021/09/13 06:08:03;;;;;;;1.55;1.45;;;9.20;99.90;;;;;;5091763;28;20268;-74
2021/09/13 06:10:29;;;;;;;1.15;1.13;;;9.30;99.90;;;;;;5091112;28;20208;-74
2021/09/13 06:12:55;;;;;;;0.60;0.60;;;9.40;99.90;;;;;;5075657;28;20572;-74
2021/09/13 06:15:20;;;;;;;0.50;0.50;;;9.50;99.90;;;;;;5079133;28;20201;-74
2021/09/13 06:17:46;;;;;;;0.60;0.60;;;9.60;99.90;;;;;;5094819;28;20219;-75
2021/09/13 06:20:13;;;;;;;0.60;0.60;;;9.50;99.90;;;;;;5078244;28;20215;-74
2021/09/13 06:22:39;;;;;;;0.60;0.60;;;9.50;99.90;;;;;;5094167;28;20206;-74
2021/09/13 06:25:05;;;;;;;0.40;0.40;;;9.50;99.90;;;;;;5095365;28;20200;-73
2021/09/13 06:27:30;;;;;;;0.80;0.80;;;9.70;99.90;;;;;;5093093;28;20208;-73
2021/09/13 06:29:56;;;;;;;0.50;0.50;;;9.80;99.90;;;;;;5077553;28;20582;-73
2021/09/13 06:32:22;;;;;;;0.60;0.60;;;9.90;99.90;;;;;;5092519;28;20254;-71
2021/09/13 06:34:47;;;;;;;0.73;0.73;;;10.00;99.90;;;;;;5093539;28;20265;-75
2021/09/13 06:37:14;;;;;;;0.50;0.50;;;10.00;99.90;;;;;;5092633;28;20208;-73
2021/09/13 06:39:40;;;;;;;0.50;0.50;;;10.10;99.90;;;;;;5091408;28;20208;-71
2021/09/13 06:42:06;;;;;;;0.85;0.85;;;10.20;99.90;;;;;;5092937;28;20211;-71
2021/09/13 06:44:31;;;;;;;0.80;0.80;;;10.30;99.90;;;;;;5093836;28;20204;-71
2021/09/13 06:47:09;;;;;;;0.60;0.60;;;10.40;99.90;;;;;;5095239;28;20248;-72
2021/09/13 06:49:36;;;;;;;0.60;0.60;;;10.50;99.90;;;;;;5093209;28;20697;-71
2021/09/13 06:52:04;;;;;;;0.60;0.60;;;10.70;99.90;;;;;;5092661;28;20257;-72
2021/09/13 06:54:30;;;;;;;0.73;0.73;;;10.90;99.90;;;;;;5087138;28;20211;-71
2021/09/13 06:56:57;;;;;;;0.50;0.50;;;11.00;99.90;;;;;;5083982;28;20204;-71
2021/09/13 06:59:23;;;;;;;1.30;1.17;;;11.20;99.90;;;;;;5092126;28;20196;-71
2021/09/13 07:01:49;;;;;;;0.50;0.50;;;11.10;99.90;;;;;;5090788;28;20219;-71
2021/09/13 07:04:14;;;;;;;0.60;0.60;;;11.20;99.90;;;;;;5089858;28;20268;-70
2021/09/13 07:06:40;;;;;;;0.60;0.60;;;11.20;99.90;;;;;;5080872;28;20567;-73
2021/09/13 07:09:06;;;;;;;0.60;0.60;;;11.10;99.90;;;;;;5093016;28;20200;-72
2021/09/13 07:11:31;;;;;;;0.70;0.70;;;11.20;99.90;;;;;;5092443;28;20740;-70
2021/09/13 07:13:57;;;;;;;0.60;0.60;;;11.30;99.90;;;;;;5092166;28;20212;-71
2021/09/13 07:16:23;;;;;;;0.60;0.60;;;11.40;99.90;;;;;;5078049;28;20196;-71
2021/09/13 07:18:49;;;;;;;0.50;0.50;;;11.50;99.90;;;;;;5093256;28;20204;-71
2021/09/13 07:21:16;;;;;;;0.60;0.60;;;11.60;99.90;;;;;;5092478;28;20681;-71
2021/09/13 07:23:42;;;;;;;1.35;0.82;;;11.60;99.90;;;;;;5075203;28;20291;-71
2021/09/13 07:26:07;;;;;;;0.50;0.50;;;11.70;99.90;;;;;;5093625;28;20212;-71
2021/09/13 07:28:33;;;;;;;0.55;0.55;;;11.60;99.90;;;;;;5077005;28;20250;-71
2021/09/13 07:30:59;;;;;;;0.60;0.60;;;11.60;99.90;;;;;;5075121;28;20217;-71
2021/09/13 07:33:25;;;;;;;0.50;0.50;;;11.60;99.90;;;;;;5090381;28;20210;-71
2021/09/13 07:35:51;;;;;;;0.50;0.50;;;11.70;99.90;;;;;;5091714;28;20208;-72
2021/09/13 07:38:17;;;;;;;0.60;0.60;;;11.80;99.90;;;;;;5082753;28;20574;-71
2021/09/13 07:40:43;;;;;;;0.60;0.60;;;11.90;99.90;;;;;;5076429;28;20307;-71
2021/09/13 07:43:09;;;;;;;0.50;0.50;;;12.20;99.90;;;;;;5085749;28;20720;-71
2021/09/13 07:45:36;;;;;;;0.55;0.55;;;12.30;99.90;;;;;;5085536;28;20208;-71
2021/09/13 07:48:03;;;;;;;0.55;0.55;;;12.30;99.90;;;;;;5084548;28;20653;-71
2021/09/13 07:50:29;;;;;;;0.60;0.60;;;12.40;99.90;;;;;;5092336;28;20216;-72
2021/09/13 07:52:54;;;;;;;0.50;0.50;;;12.40;99.90;;;;;;5093811;28;20204;-72
2021/09/13 07:55:20;;;;;;;0.60;0.60;;;12.50;99.90;;;;;;5092218;28;20281;-71
2021/09/13 07:57:45;;;;;;;0.60;0.60;;;12.70;99.90;;;;;;5092556;28;20210;-71
2021/09/13 08:00:12;;;;;;;0.60;0.60;;;12.80;99.90;;;;;;5091315;28;20296;-71
2021/09/13 08:02:38;;;;;;;0.50;0.50;;;12.80;99.90;;;;;;5092959;28;20711;-71
2021/09/13 08:05:04;;;;;;;0.60;0.60;;;12.80;99.90;;;;;;5074403;28;20221;-71
2021/09/13 08:07:30;;;;;;;0.50;0.50;;;12.80;99.90;;;;;;5092629;28;20631;-71
2021/09/13 08:09:55;;;;;;;0.50;0.50;;;12.80;99.90;;;;;;5091742;28;20218;-71
2021/09/13 08:12:21;;;;;;;0.60;0.60;;;12.90;99.90;;;;;;5094010;28;20204;-72
2021/09/13 08:14:47;;;;;;;0.60;0.60;;;12.90;99.90;;;;;;5079979;28;20192;-71
2021/09/13 08:17:12;;;;;;;0.50;0.50;;;12.80;99.90;;;;;;5089665;28;20214;-71
2021/09/13 08:19:40;;;;;;;0.50;0.50;;;12.70;99.90;;;;;;5079344;28;20208;-71
2021/09/13 08:22:07;;;;;;;0.50;0.50;;;12.70;99.90;;;;;;5075881;28;20201;-71
2021/09/13 08:24:34;;;;;;;0.68;0.68;;;12.70;99.90;;;;;;5087378;28;20287;-71
2021/09/13 08:27:00;;;;;;;0.50;0.50;;;12.90;99.90;;;;;;5091806;28;20547;-71
2021/09/13 08:29:25;;;;;;;0.60;0.60;;;13.10;99.90;;;;;;5090081;28;20200;-72
2021/09/13 08:31:53;;;;;;;0.57;0.57;;;13.40;99.90;;;;;;5090578;28;20199;-71
2021/09/13 08:34:19;;;;;;;0.50;0.50;;;13.50;99.90;;;;;;5083783;28;20208;-71
2021/09/13 08:36:45;;;;;;;0.50;0.50;;;13.50;99.90;;;;;;5082911;28;20196;-71
2021/09/13 08:39:11;;;;;;;0.50;0.50;;;13.70;99.90;;;;;;5086038;28;20189;-71
2021/09/13 08:41:37;;;;;;;0.60;0.60;;;13.70;99.90;;;;;;5077891;28;20215;-72
2021/09/13 08:44:03;;;;;;;0.50;0.50;;;13.80;99.90;;;;;;5091678;28;20241;-70
2021/09/13 08:47:04;;;;;;;0.40;0.40;;;14.00;99.90;;;;;;5089739;28;20297;-72
2021/09/13 08:49:36;;;;;;;0.50;0.50;;;13.90;99.90;;;;;;5088025;28;20705;-71
2021/09/13 08:52:04;;;;;;;0.50;0.50;;;13.70;99.90;;;;;;5090201;28;20807;-71
2021/09/13 08:54:32;;;;;;;0.50;0.50;;;13.50;99.90;;;;;;5086292;28;20207;-72
2021/09/13 08:57:04;;;;;;;0.50;0.50;;;13.60;99.90;;;;;;5075939;28;20296;-72
2021/09/13 08:59:33;;;;;;;0.50;0.50;;;13.70;99.90;;;;;;5079755;28;20587;-72
2021/09/13 09:02:00;;;;;;;0.45;0.45;;;13.80;99.90;;;;;;5089679;28;20211;-71
2021/09/13 09:04:28;;;;;;;0.40;0.40;;;14.00;99.90;;;;;;5089880;28;20215;-72
2021/09/13 09:06:54;;;;;;;0.60;0.60;;;14.20;99.90;;;;;;5089847;28;20242;-72
2021/09/13 09:09:21;;;;;;;0.50;0.50;;;14.50;99.90;;;;;;5091440;28;20232;-72
2021/09/13 09:11:56;;;;;;;0.50;0.50;;;14.70;99.90;;;;;;5091269;28;20220;-71
2021/09/13 09:14:46;;;;;;;0.60;0.60;;;15.00;99.90;;;;;;5091897;28;20261;-73
2021/09/13 09:17:23;;;;;;;0.50;0.50;;;15.10;99.90;;;;;;5074160;28;20205;-73
2021/09/13 09:19:59;;;;;;;0.40;0.40;;;15.30;99.90;;;;;;5088088;28;20192;-73
2021/09/13 09:22:28;;;;;;;0.50;0.50;;;15.20;99.90;;;;;;5076506;28;20204;-73
2021/09/13 09:24:55;;;;;;;0.68;0.60;;;15.10;99.90;;;;;;5091053;28;20196;-73
2021/09/13 09:27:22;;;;;;;0.50;0.50;;;15.40;99.90;;;;;;5087273;28;20197;-73
2021/09/13 09:29:48;;;;;;;0.50;0.50;;;15.40;99.90;;;;;;5088769;28;20197;-73
2021/09/13 09:32:26;;;;;;;0.40;0.40;;;15.50;99.90;;;;;;5072559;28;20207;-73
2021/09/13 09:34:54;;;;;;;0.50;0.50;;;15.70;99.90;;;;;;5073652;28;20185;-74
2021/09/13 09:37:24;;;;;;;0.47;0.47;;;15.90;99.90;;;;;;5089421;28;20192;-72
2021/09/13 09:40:01;;;;;;;0.60;0.60;;;16.00;99.90;;;;;;5073442;28;20671;-73
2021/09/13 09:42:37;;;;;;;0.40;0.40;;;16.30;99.90;;;;;;5091875;28;20584;-72
2021/09/13 09:45:06;;;;;;;0.50;0.50;;;16.40;99.90;;;;;;5095480;28;20198;-73
2021/09/13 09:47:32;;;;;;;0.50;0.50;;;16.40;99.90;;;;;;5094116;28;20188;-73
2021/09/13 09:50:00;;;;;;;0.40;0.40;;;16.40;99.90;;;;;;5088818;28;20296;-72
2021/09/13 09:52:33;;;;;;;0.40;0.40;;;16.50;99.90;;;;;;5078157;28;20208;-73
2021/09/13 09:55:13;;;;;;;0.40;0.40;;;16.60;99.90;;;;;;5092914;28;20670;-72
2021/09/13 09:57:41;;;;;;;0.50;0.50;;;16.70;99.90;;;;;;5095005;28;20692;-74
2021/09/13 10:00:24;;;;;;;0.40;0.40;;;16.60;99.90;;;;;;5093361;28;20208;-74
2021/09/13 10:02:52;;;;;;;0.40;0.40;;;16.70;99.90;;;;;;5076135;28;20212;-72
2021/09/13 10:05:22;;;;;;;0.40;0.40;;;17.00;99.90;;;;;;5094520;28;20224;-73
2021/09/13 10:07:49;;;;;;;0.40;0.40;;;16.90;99.90;;;;;;5086410;28;20210;-73
2021/09/13 10:10:15;;;;;;;0.40;0.40;;;16.80;99.90;;;;;;5094852;28;20212;-73
2021/09/13 10:12:41;;;;;;;0.63;0.63;;;16.80;99.90;;;;;;5094504;28;20215;-73
2021/09/13 10:15:08;;;;;;;0.40;0.40;;;17.00;99.90;;;;;;5094726;28;20295;-73
2021/09/13 10:17:34;;;;;;;0.38;0.38;;;17.20;99.90;;;;;;5093254;28;20237;-73
2021/09/13 10:20:05;;;;;;;0.40;0.40;;;17.20;99.90;;;;;;5083065;28;20200;-73
2021/09/13 10:22:35;;;;;;;0.40;0.40;;;17.20;99.90;;;;;;5088602;28;20727;-73
2021/09/13 10:25:01;;;;;;;1.20;0.63;;;17.30;99.90;;;;;;5083057;28;20609;-73
2021/09/13 10:27:27;;;;;;;0.35;0.35;;;17.30;99.90;;;;;;5089464;28;20265;-74
2021/09/13 10:30:11;;;;;;;0.40;0.40;;;17.30;99.90;;;;;;5094401;28;20204;-74
2021/09/13 10:32:37;;;;;;;0.30;0.30;;;17.50;99.90;;;;;;5092759;28;20200;-73
2021/09/13 10:35:03;;;;;;;0.30;0.30;;;17.80;99.90;;;;;;5085750;28;20223;-74
2021/09/13 10:37:54;;;;;;;0.30;0.30;;;18.00;99.90;;;;;;5084848;28;20203;-73
2021/09/13 10:40:32;;;;;;;0.50;0.50;;;17.80;99.90;;;;;;5093114;28;20216;-73
2021/09/13 10:43:19;;;;;;;0.40;0.40;;;17.50;99.90;;;;;;5083519;28;20662;-73
2021/09/13 10:45:45;;;;;;;0.30;0.30;;;17.50;99.90;;;;;;5091031;28;20674;-74
2021/09/13 10:48:19;;;;;;;0.30;0.30;;;17.80;99.90;;;;;;5094946;28;20210;-73
2021/09/13 10:50:46;;;;;;;0.30;0.30;;;17.90;99.90;;;;;;5094417;28;20207;-73
2021/09/13 10:53:18;;;;;;;0.32;0.32;;;17.90;99.90;;;;;;5081966;28;20204;-73
2021/09/13 10:55:55;;;;;;;0.40;0.40;;;18.20;99.90;;;;;;5088249;28;20242;-74
2021/09/13 10:58:41;;;;;;;0.40;0.40;;;18.60;99.90;;;;;;5092276;28;20195;-73
2021/09/13 11:01:29;;;;;;;0.40;0.40;;;18.90;99.90;;;;;;5081534;28;20255;-74
2021/09/13 11:04:08;;;;;;;0.30;0.30;;;19.30;99.90;;;;;;5090164;28;20216;-74
2021/09/13 11:06:40;;;;;;;0.30;0.30;;;19.00;99.90;;;;;;5092012;28;20203;-74
2021/09/13 11:09:09;;;;;;;0.20;0.20;;;19.10;99.90;;;;;;5094565;28;20208;-74
2021/09/13 11:11:45;;;;;;;0.30;0.30;;;19.30;99.90;;;;;;5091808;28;20273;-73
2021/09/13 11:14:19;;;;;;;0.28;0.28;;;19.50;99.90;;;;;;5093591;28;20199;-74
2021/09/13 11:16:55;;;;;;;0.30;0.30;;;18.80;99.90;;;;;;5091412;28;20569;-74
2021/09/13 11:19:22;;;;;;;0.30;0.30;;;19.10;99.90;;;;;;5078656;28;20629;-74
2021/09/13 11:21:49;;;;;;;0.30;0.30;;;19.30;99.90;;;;;;5089800;28;20662;-73
2021/09/13 11:24:16;;;;;;;0.30;0.30;;;19.30;99.90;;;;;;5093149;28;20635;-74
2021/09/13 11:27:03;;;;;;;0.30;0.30;;;19.30;99.90;;;;;;5091612;28;20227;-73
2021/09/13 11:29:34;;;;;;;0.30;0.30;;;19.30;99.90;;;;;;5092671;28;20204;-73
2021/09/13 11:32:02;;;;;;;0.30;0.30;;;19.30;99.90;;;;;;5090709;28;20688;-73
2021/09/13 11:34:31;;;;;;;0.30;0.30;;;19.50;99.90;;;;;;5092798;28;20228;-73
2021/09/13 11:37:34;;;;;;;0.30;0.30;;;19.40;99.90;;;;;;5091600;28;20196;-73
2021/09/13 11:40:01;;;;;;;0.65;0.50;;;19.50;99.90;;;;;;5076079;28;20217;-73
2021/09/13 11:42:29;;;;;;;0.30;0.30;;;19.70;99.90;;;;;;5077022;28;20592;-73
2021/09/13 11:45:07;;;;;;;0.30;0.30;;;19.70;99.90;;;;;;5090311;28;20196;-73
2021/09/13 11:47:34;;;;;;;0.30;0.30;;;19.40;99.90;;;;;;5075043;28;20233;-73
2021/09/13 11:50:03;;;;;;;0.30;0.30;;;19.50;99.90;;;;;;5091441;28;20629;-73
2021/09/13 11:52:29;;;;;;;0.30;0.30;;;19.70;99.90;;;;;;5092487;28;20204;-73
2021/09/13 11:55:03;;;;;;;0.20;0.20;;;19.60;99.90;;;;;;5092571;28;20204;-72
2021/09/13 11:57:53;;;;;;;0.30;0.30;;;19.50;99.90;;;;;;5080105;28;20208;-73
2021/09/13 12:00:21;;;;;;;0.30;0.30;;;19.50;99.90;;;;;;5081793;28;20641;-73
2021/09/13 12:02:52;;;;;;;0.30;0.30;;;19.40;99.90;;;;;;5078629;28;20241;-73
2021/09/13 12:05:20;;;;;;;0.30;0.30;;;19.40;99.20;;;;;;5074580;28;20224;-73
2021/09/13 12:07:48;;;;;;;0.30;0.30;;;19.30;99.90;;;;;;5089945;28;20585;-73
2021/09/13 12:10:36;;;;;;;0.30;0.30;;;19.20;99.50;;;;;;5089576;28;20208;-73
2021/09/13 12:13:09;;;;;;;0.30;0.30;;;19.40;98.00;;;;;;5093359;28;20678;-73
2021/09/13 12:15:35;;;;;;;0.25;0.25;;;19.40;95.90;;;;;;5091630;28;20234;-73
2021/09/13 12:18:06;;;;;;;0.52;0.52;;;19.60;98.20;;;;;;5091989;28;20570;-73
2021/09/13 12:20:51;;;;;;;0.30;0.30;;;19.60;96.80;;;;;;5076416;28;20204;-73
2021/09/13 12:23:25;;;;;;;0.30;0.30;;;19.40;98.10;;;;;;5074974;28;20201;-73
2021/09/13 12:25:53;;;;;;;0.30;0.30;;;19.30;98.10;;;;;;5076678;28;20204;-73
2021/09/13 12:28:23;;;;;;;0.30;0.30;;;19.30;98.30;;;;;;5074061;28;20292;-72
2021/09/13 12:30:54;;;;;;;0.47;0.30;;;19.20;99.10;;;;;;5088338;28;20523;-74
2021/09/13 12:33:20;;;;;;;0.30;0.30;;;19.60;98.20;;;;;;5092917;28;20196;-73
2021/09/13 12:35:49;;;;;;;0.30;0.30;;;19.80;96.70;;;;;;5091785;28;20542;-72
2021/09/13 12:38:21;;;;;;;0.52;0.52;;;19.70;97.60;;;;;;5093103;28;20204;-73
2021/09/13 12:41:01;;;;;;;0.30;0.30;;;19.80;99.90;;;;;;5080037;28;20808;-73
2021/09/13 12:43:31;;;;;;;0.30;0.30;;;19.60;96.50;;;;;;5088522;28;20573;-73
2021/09/13 12:46:05;;;;;;;0.22;0.22;;;19.40;97.70;;;;;;5088869;28;20299;-73
2021/09/13 12:48:32;;;;;;;0.30;0.30;;;19.40;94.80;;;;;;5089820;28;20196;-72
2021/09/13 12:50:58;;;;;;;0.28;0.28;;;18.90;96.30;;;;;;5079256;28;20214;-73
2021/09/13 12:53:30;;;;;;;0.30;0.30;;;19.10;96.30;;;;;;5074902;28;20675;-73
2021/09/13 12:55:57;;;;;;;0.30;0.30;;;19.30;95.90;;;;;;5084436;28;20223;-73